Tropical Cyclones
[Index]
Main Index Home Page Stock Weather Photos Extreme Storms Discussion Storm News and Storm Chasing Reports Tropical Cyclones / Hurricanes / Typhoons Weather Data and Links Wild Fires / Bushfires Weather Observation Techniques Weather Picture Catalogue Tornado Pictures and Reports Stock Video Footage and DVDs for sale
Season 2005-2006 Tropical Cyclone TROP-DEPRESSION-05 Track Map
Season 2005-2006 Summaries (Operational Data): [AU] [SIO] [SPAC] [SH]
<<- Previous TC | 2005-2006 Season | Next TC ->>

click for intensity scale information  Lat/long Grid: Show Hide

 Date Labels: Show Hide

Operational Tropical Cyclone Data

Name: TROP-DEPRESSION-05
Number: 06PD

19 Feb 2006 21:00 UTC to 25 Feb 2006 18:00 UTC

    date/time    lat    long     hPa   cat  kts
2006-02-19 21   11.0   166.0    1003         15          
2006-02-20 06   11.0   166.0    1003         15          
2006-02-20 18   13.0   168.0    1001         15          
2006-02-20 21   14.0   169.0    1001         15          
2006-02-21 06   14.0   170.0    1000         15          
2006-02-21 18   14.5   170.0    1000         20          
2006-02-22 06   16.0   169.5     998         25          
2006-02-22 18   15.9   169.5     998         25          
2006-02-22 21   16.5   168.9     998         25          
2006-02-23 06   19.6   173.4     998         25          
2006-02-23 12   20.1   175.4     998         25          
2006-02-23 18   20.2   175.4     998         25          
2006-02-24 00   21.4   176.1     998         25          
2006-02-24 06   22.9   177.1     998         25          
2006-02-24 12   22.9   176.1     998         25          
2006-02-24 18   23.9   176.9     998         25          
2006-02-25 00   24.8   176.8     998         25          
2006-02-25 06   24.6   177.2     998         25          
2006-02-25 18   24.5   177.5    1004         20          
Winds are 10-min average.

Tropical cyclone tracks developed by Michael Bath using operational warnings and advisories and Google Maps.


[Australian Severe Weather index] [Copyright Notice] [Email Contacts] [Search This Site] [Privacy Policy]
Document: tropical_cyclone_trop-depression-05.htm Updated: 28 May 2013